createdAt,value
2018-07-05T00:02:01.932Z,26.69
2018-07-05T00:04:41.717Z,26.67
2018-07-05T00:07:21.276Z,26.61
2018-07-05T00:10:01.028Z,26.59
2018-07-05T00:12:40.737Z,26.51
2018-07-05T00:15:20.663Z,26.49
2018-07-05T00:18:00.304Z,26.44
2018-07-05T00:20:40.157Z,26.41
2018-07-05T00:23:20.060Z,26.39
2018-07-05T00:25:59.754Z,26.36
2018-07-05T00:28:39.628Z,26.32
2018-07-05T00:31:19.688Z,26.30
2018-07-05T00:33:59.535Z,26.26
2018-07-05T00:36:39.152Z,26.22
2018-07-05T00:39:18.852Z,26.16
2018-07-05T00:41:58.609Z,26.12
2018-07-05T00:47:29.144Z,26.09
2018-07-05T00:50:09.276Z,26.05
2018-07-05T00:52:48.961Z,26.04
2018-07-05T00:55:28.750Z,26.02
2018-07-05T00:58:08.522Z,26.03
2018-07-05T01:00:48.405Z,26.03
2018-07-05T01:03:28.303Z,26.02
2018-07-05T01:06:08.163Z,26.04
2018-07-05T01:08:48.728Z,26.01
2018-07-05T01:11:28.610Z,25.99
2018-07-05T01:14:08.321Z,25.97
2018-07-05T01:16:48.009Z,25.93
2018-07-05T01:19:27.895Z,25.84
2018-07-05T01:22:07.556Z,25.77
2018-07-05T01:24:48.365Z,25.66
2018-07-05T01:27:28.631Z,25.60
2018-07-05T01:30:08.414Z,25.56
2018-07-05T01:32:48.274Z,25.54
2018-07-05T01:35:28.119Z,25.58
2018-07-05T01:38:08.262Z,25.59
2018-07-05T01:40:48.080Z,25.59
2018-07-05T01:43:27.996Z,25.60
2018-07-05T01:46:07.752Z,25.62
2018-07-05T01:48:47.549Z,25.64
2018-07-05T01:51:27.547Z,25.66
2018-07-05T01:54:07.450Z,25.66
2018-07-05T01:56:47.438Z,25.67
2018-07-05T01:59:27.823Z,25.63
2018-07-05T02:02:07.579Z,25.58
2018-07-05T02:04:47.660Z,25.53
2018-07-05T02:07:27.454Z,25.47
2018-07-05T02:10:07.358Z,25.41
2018-07-05T02:12:47.115Z,25.37
2018-07-05T02:15:27.263Z,25.35
2018-07-05T02:18:07.155Z,25.32
2018-07-05T02:20:46.979Z,25.29
2018-07-05T02:23:27.330Z,25.28
2018-07-05T02:26:07.157Z,25.26
2018-07-05T02:28:47.108Z,25.29
2018-07-05T02:31:26.768Z,25.26
2018-07-05T02:34:10.974Z,25.28
2018-07-05T02:36:51.240Z,25.29
2018-07-05T02:39:36.201Z,25.29
2018-07-05T02:42:15.910Z,25.31
2018-07-05T02:44:56.097Z,25.34
2018-07-05T02:47:36.142Z,25.35
2018-07-05T02:50:15.826Z,25.40
2018-07-05T02:52:55.715Z,25.41
2018-07-05T02:55:35.426Z,25.37
2018-07-05T02:58:15.197Z,25.37
2018-07-05T03:00:55.388Z,25.37
2018-07-05T03:03:35.077Z,25.38
2018-07-05T03:06:14.912Z,25.41
2018-07-05T03:08:55.048Z,25.43
2018-07-05T03:11:35.124Z,25.45
2018-07-05T03:14:15.091Z,25.48
2018-07-05T03:16:55.075Z,25.51
2018-07-05T03:19:35.402Z,25.55
2018-07-05T03:22:15.206Z,25.58
2018-07-05T03:24:55.000Z,25.59
2018-07-05T03:27:34.969Z,25.59
2018-07-05T03:30:14.810Z,25.60
2018-07-05T03:32:54.516Z,25.60
2018-07-05T03:35:34.790Z,25.62
2018-07-05T03:38:15.432Z,25.62
2018-07-05T03:40:55.376Z,25.61
2018-07-05T03:43:35.660Z,25.57
2018-07-05T03:46:15.521Z,25.53
2018-07-05T03:48:55.822Z,25.51
2018-07-05T03:51:35.969Z,25.50
2018-07-05T03:54:15.722Z,25.51
2018-07-05T03:56:55.655Z,25.52
2018-07-05T03:59:35.473Z,25.50
2018-07-05T04:02:15.371Z,25.53
2018-07-05T04:04:56.109Z,25.57
2018-07-05T04:07:36.048Z,25.60
2018-07-05T04:10:15.967Z,25.66
2018-07-05T04:12:55.954Z,25.67
2018-07-05T04:15:36.246Z,25.64
2018-07-05T04:18:16.566Z,25.68
2018-07-05T04:20:56.512Z,25.72
2018-07-05T04:23:36.362Z,25.79
2018-07-05T04:26:17.463Z,25.89
2018-07-05T04:28:57.892Z,26.02
2018-07-05T04:31:38.721Z,26.18
2018-07-05T04:34:19.548Z,26.33
2018-07-05T04:36:59.883Z,26.49
2018-07-05T04:42:25.017Z,26.83
2018-07-05T04:45:04.652Z,27.01
2018-07-05T04:47:44.622Z,27.09
2018-07-05T04:50:24.633Z,27.07
2018-07-05T04:53:04.789Z,27.01
2018-07-05T04:55:44.553Z,26.91
2018-07-05T04:58:24.488Z,26.83
2018-07-05T05:01:04.530Z,26.73
2018-07-05T05:03:44.524Z,26.67
2018-07-05T05:06:24.284Z,26.60
2018-07-05T05:09:04.574Z,26.53
2018-07-05T05:11:44.806Z,26.48
2018-07-05T05:14:24.974Z,26.46
2018-07-05T05:17:04.749Z,26.32
2018-07-05T05:19:45.115Z,26.22
2018-07-05T05:22:25.039Z,26.11
2018-07-05T05:25:05.333Z,25.96
2018-07-05T05:27:45.223Z,25.88
2018-07-05T05:30:25.025Z,25.82
2018-07-05T05:33:05.211Z,25.79
2018-07-05T05:35:44.941Z,25.76
2018-07-05T05:38:26.669Z,25.77
2018-07-05T05:41:06.394Z,25.79
2018-07-05T05:43:48.143Z,25.83
2018-07-05T05:49:27.530Z,26.00
2018-07-05T05:52:08.182Z,26.10
2018-07-05T05:54:59.360Z,26.17
2018-07-05T05:57:39.720Z,26.25
2018-07-05T06:00:22.259Z,26.33
2018-07-05T06:03:01.962Z,26.41
2018-07-05T06:05:43.012Z,26.51
2018-07-05T06:08:23.066Z,26.60
2018-07-05T06:11:02.771Z,26.70
2018-07-05T06:13:44.228Z,26.73
2018-07-05T06:16:24.267Z,26.80
2018-07-05T06:19:04.300Z,26.86
2018-07-05T06:21:44.214Z,26.97
2018-07-05T06:24:24.231Z,27.07
2018-07-05T06:27:04.581Z,27.16
2018-07-05T06:29:44.901Z,27.23
2018-07-05T06:32:24.459Z,27.35
2018-07-05T06:35:04.640Z,27.50
2018-07-05T06:37:44.362Z,27.64
2018-07-05T06:40:24.134Z,27.79
2018-07-05T06:43:03.710Z,27.95
2018-07-05T06:45:48.712Z,28.17
2018-07-05T06:51:30.356Z,28.96
2018-07-05T06:54:13.919Z,29.25
2018-07-05T06:56:53.693Z,29.45
2018-07-05T06:59:33.507Z,29.59
2018-07-05T07:02:14.013Z,29.72
2018-07-05T07:04:53.773Z,29.97
2018-07-05T07:07:33.484Z,30.35
2018-07-05T07:10:13.316Z,30.58
2018-07-05T07:12:53.071Z,30.63
2018-07-05T07:15:36.071Z,30.56
2018-07-05T07:18:15.981Z,30.44
2018-07-05T07:20:56.239Z,30.29
2018-07-05T07:23:36.129Z,30.17
2018-07-05T07:26:16.240Z,30.03
2018-07-05T07:28:56.455Z,29.92
2018-07-05T07:31:37.971Z,29.84
2018-07-05T07:34:18.116Z,29.74
2018-07-05T07:36:57.930Z,29.63
2018-07-05T07:39:37.685Z,29.52
2018-07-05T07:42:05.054Z,29.45
2018-07-05T07:44:32.445Z,29.31
2018-07-05T07:46:59.809Z,29.16
2018-07-05T07:49:27.197Z,29.10
2018-07-05T07:51:54.725Z,29.05
2018-07-05T07:54:22.223Z,29.04
2018-07-05T07:56:49.813Z,29.04
2018-07-05T07:59:17.414Z,29.06
2018-07-05T08:01:44.858Z,29.09
2018-07-05T08:04:12.775Z,29.14
2018-07-05T08:06:40.252Z,29.13
2018-07-05T08:09:07.663Z,29.11
2018-07-05T08:11:35.173Z,29.09
2018-07-05T08:14:02.746Z,29.07
2018-07-05T08:16:30.217Z,29.07
2018-07-05T08:18:58.578Z,29.10
2018-07-05T08:21:26.581Z,29.14
2018-07-05T08:23:54.212Z,29.18
2018-07-05T08:26:21.861Z,29.25
2018-07-05T08:28:49.490Z,29.31
2018-07-05T08:31:17.018Z,29.35
2018-07-05T08:33:46.449Z,29.40
2018-07-05T08:36:14.370Z,29.44
2018-07-05T08:38:42.183Z,29.45
2018-07-05T08:41:12.140Z,29.46
2018-07-05T08:43:44.638Z,29.53
2018-07-05T08:46:26.270Z,29.59
2018-07-05T08:48:55.324Z,29.64
2018-07-05T08:51:26.200Z,29.72
2018-07-05T08:56:37.287Z,29.89
2018-07-05T08:59:05.717Z,29.97
2018-07-05T09:01:34.612Z,30.05
2018-07-05T09:04:02.296Z,30.12
2018-07-05T09:06:30.915Z,30.16
2018-07-05T09:08:59.205Z,30.17
2018-07-05T09:11:28.053Z,30.18
2018-07-05T09:13:56.711Z,30.25
2018-07-05T09:16:24.450Z,30.27
2018-07-05T09:18:52.068Z,30.33
2018-07-05T09:21:22.958Z,30.53
2018-07-05T09:23:50.699Z,30.79
2018-07-05T09:26:25.815Z,31.10
2018-07-05T09:28:53.368Z,31.57
2018-07-05T09:31:21.041Z,32.16
2018-07-05T09:33:48.967Z,32.77
2018-07-05T09:36:16.381Z,33.42
2018-07-05T09:38:43.736Z,33.84
2018-07-05T09:41:11.154Z,34.36
2018-07-05T09:43:38.539Z,34.86
2018-07-05T09:46:06.139Z,35.50
2018-07-05T09:48:33.896Z,36.25
2018-07-05T09:51:01.229Z,36.89
2018-07-05T09:53:28.627Z,37.28
2018-07-05T09:55:56.103Z,37.71
2018-07-05T09:58:23.555Z,38.10
2018-07-05T10:00:52.215Z,38.31
2018-07-05T10:03:21.212Z,38.48
2018-07-05T10:05:48.984Z,38.49
2018-07-05T10:08:18.279Z,38.43
2018-07-05T10:10:45.675Z,38.39
2018-07-05T10:13:13.272Z,38.34
2018-07-05T10:15:40.856Z,38.59
2018-07-05T10:18:08.271Z,38.91
2018-07-05T10:20:35.761Z,39.24
2018-07-05T10:23:03.127Z,39.95
2018-07-05T10:25:30.546Z,40.24
2018-07-05T10:27:57.927Z,40.06
2018-07-05T10:30:37.354Z,40.01
2018-07-05T10:33:16.970Z,39.46
2018-07-05T10:35:44.441Z,38.86
2018-07-05T10:38:11.957Z,38.34
2018-07-05T10:40:51.561Z,37.65
2018-07-05T10:43:31.360Z,36.95
2018-07-05T10:46:11.021Z,36.31
2018-07-05T10:48:50.725Z,35.74
2018-07-05T10:51:30.354Z,35.25
2018-07-05T10:54:10.060Z,34.79
2018-07-05T10:56:49.690Z,34.44
2018-07-05T10:59:29.984Z,34.16
2018-07-05T11:02:09.690Z,33.94
2018-07-05T11:04:49.537Z,33.74
2018-07-05T11:07:29.054Z,33.56
2018-07-05T11:10:11.024Z,33.41
2018-07-05T11:12:50.737Z,33.34
2018-07-05T11:15:30.605Z,33.33
2018-07-05T11:18:10.222Z,33.28
2018-07-05T11:20:49.852Z,33.30
2018-07-05T11:23:29.676Z,33.39
2018-07-05T11:26:09.280Z,33.56
2018-07-05T11:28:48.864Z,33.68
2018-07-05T11:31:28.782Z,33.84
2018-07-05T11:34:08.410Z,34.03
2018-07-05T11:36:48.279Z,34.30
2018-07-05T11:39:28.035Z,34.60
2018-07-05T11:42:08.069Z,34.86
2018-07-05T11:44:47.786Z,35.04
2018-07-05T11:47:27.438Z,35.21
2018-07-05T11:50:07.141Z,35.37
2018-07-05T11:52:46.714Z,35.51
2018-07-05T11:55:26.398Z,35.62
2018-07-05T11:58:06.375Z,35.64
2018-07-05T12:00:45.921Z,35.63
2018-07-05T12:03:25.634Z,35.55
2018-07-05T12:06:05.467Z,35.36
2018-07-05T12:08:45.486Z,35.24
2018-07-05T12:11:25.258Z,35.14
2018-07-05T12:14:04.991Z,35.11
2018-07-05T12:16:44.568Z,35.08
2018-07-05T12:19:24.174Z,35.08
2018-07-05T12:22:03.846Z,35.10
2018-07-05T12:24:43.636Z,35.04
2018-07-05T12:27:23.336Z,34.93
2018-07-05T12:30:03.344Z,34.90
2018-07-05T12:32:43.125Z,34.93
2018-07-05T12:35:23.063Z,35.02
2018-07-05T12:38:02.793Z,35.16
2018-07-05T12:40:42.561Z,35.30
2018-07-05T12:43:22.217Z,35.42
2018-07-05T12:46:02.330Z,35.45
2018-07-05T12:48:42.546Z,35.43
2018-07-05T12:51:22.849Z,35.45
2018-07-05T12:54:02.407Z,35.43
2018-07-05T12:56:42.130Z,35.43
2018-07-05T12:59:21.684Z,35.55
2018-07-05T13:02:03.360Z,35.71
2018-07-05T13:04:43.172Z,35.86
2018-07-05T13:07:22.894Z,35.98
2018-07-05T13:10:02.672Z,36.06
2018-07-05T13:12:42.624Z,36.08
2018-07-05T13:15:23.341Z,36.12
2018-07-05T13:18:02.907Z,36.09
2018-07-05T13:20:43.742Z,35.97
2018-07-05T13:23:23.933Z,35.84
2018-07-05T13:26:03.679Z,35.70
2018-07-05T13:28:43.253Z,35.59
2018-07-05T13:31:24.525Z,35.50
2018-07-05T13:34:04.274Z,35.43
2018-07-05T13:36:44.503Z,35.44
2018-07-05T13:39:24.144Z,35.43
2018-07-05T13:42:03.925Z,35.37
2018-07-05T13:44:43.611Z,35.37
2018-07-05T13:47:23.131Z,35.38
2018-07-05T13:50:03.264Z,35.34
2018-07-05T13:52:43.272Z,35.33
2018-07-05T13:55:23.096Z,35.33
2018-07-05T13:58:02.854Z,35.28
2018-07-05T14:00:42.500Z,35.21
2018-07-05T14:03:22.270Z,35.13
2018-07-05T14:06:02.049Z,35.10
2018-07-05T14:08:41.790Z,35.08
2018-07-05T14:11:21.552Z,35.09
2018-07-05T14:14:01.254Z,35.10
2018-07-05T14:16:41.051Z,35.13
2018-07-05T14:19:20.696Z,35.20
2018-07-05T14:22:00.580Z,35.20
2018-07-05T14:24:40.195Z,35.23
2018-07-05T14:27:19.906Z,35.26
2018-07-05T14:29:59.559Z,35.28
2018-07-05T14:32:39.301Z,35.22
2018-07-05T14:35:19.087Z,35.14
2018-07-05T14:37:58.806Z,35.07
2018-07-05T14:40:38.418Z,34.96
2018-07-05T14:43:18.215Z,34.91
2018-07-05T14:45:57.884Z,34.88
2018-07-05T14:48:37.506Z,34.82
2018-07-05T14:51:17.301Z,34.74
2018-07-05T14:53:56.863Z,34.64
2018-07-05T14:56:36.575Z,34.53
2018-07-05T14:59:16.457Z,34.40
2018-07-05T15:01:56.042Z,34.28
2018-07-05T15:04:35.835Z,34.15
2018-07-05T15:07:22.750Z,34.10
2018-07-05T15:10:07.812Z,34.02
2018-07-05T15:15:34.872Z,33.92
2018-07-05T15:18:25.596Z,33.84
2018-07-05T15:21:05.628Z,33.75
2018-07-05T15:23:53.658Z,33.65
2018-07-05T15:26:35.165Z,33.58
2018-07-05T15:29:15.119Z,33.48
2018-07-05T15:31:54.717Z,33.44
2018-07-05T15:34:43.975Z,33.47
2018-07-05T15:37:39.451Z,33.56
2018-07-05T15:40:19.326Z,33.56
2018-07-05T15:42:59.179Z,33.59
2018-07-05T15:45:38.844Z,33.58
2018-07-05T15:48:18.510Z,33.52
2018-07-05T15:54:16.256Z,33.39
2018-07-05T16:27:40.158Z,33.34
2018-07-05T16:37:21.531Z,33.39
2018-07-05T16:40:01.285Z,33.37
2018-07-05T16:44:15.780Z,33.31
2018-07-05T16:47:04.111Z,33.28
2018-07-05T16:49:43.754Z,33.26
2018-07-05T16:52:23.519Z,33.22
2018-07-05T16:55:03.602Z,33.20
2018-07-05T16:57:43.401Z,33.17
2018-07-05T17:00:23.028Z,33.13
2018-07-05T17:06:04.907Z,32.97
2018-07-05T17:23:30.994Z,32.26
2018-07-05T17:29:04.777Z,32.10
2018-07-05T17:31:44.762Z,32.07
2018-07-05T17:34:24.505Z,32.04
2018-07-05T17:37:04.257Z,32.03
2018-07-05T17:39:43.814Z,31.98
2018-07-05T17:42:23.465Z,31.96
2018-07-05T17:45:03.216Z,31.94
2018-07-05T17:47:42.741Z,31.89
2018-07-05T17:50:22.351Z,31.84
2018-07-05T17:53:02.149Z,31.81
2018-07-05T17:55:41.941Z,31.77
2018-07-05T17:58:21.538Z,31.74
2018-07-05T18:01:01.320Z,31.71
2018-07-05T18:03:40.976Z,31.68
2018-07-05T18:06:20.577Z,31.64
2018-07-05T18:09:00.250Z,31.63
2018-07-05T18:11:39.720Z,31.59
2018-07-05T18:14:19.421Z,31.57
2018-07-05T18:16:59.059Z,31.52
2018-07-05T18:19:38.530Z,31.49
2018-07-05T18:22:18.209Z,31.42
2018-07-05T18:24:58.032Z,31.37
2018-07-05T18:27:37.652Z,31.31
2018-07-05T18:30:17.473Z,31.24
2018-07-05T18:32:57.191Z,31.16
2018-07-05T18:35:36.992Z,31.07
2018-07-05T18:38:16.542Z,30.98
2018-07-05T18:40:56.117Z,30.85
2018-07-05T18:43:35.819Z,30.74
2018-07-05T18:46:15.447Z,30.67
2018-07-05T18:48:55.084Z,30.59
2018-07-05T18:51:34.889Z,30.54
2018-07-05T18:54:14.628Z,30.46
2018-07-05T18:56:54.229Z,30.38
2018-07-05T18:59:33.964Z,30.31
2018-07-05T19:02:13.573Z,30.23
2018-07-05T19:04:53.301Z,30.13
2018-07-05T19:07:32.958Z,30.05
2018-07-05T19:10:12.601Z,29.98
2018-07-05T19:12:52.872Z,29.92
2018-07-05T19:15:32.876Z,29.85
2018-07-05T19:18:12.678Z,29.77
2018-07-05T19:20:54.594Z,29.73
2018-07-05T19:23:34.367Z,29.68
2018-07-05T19:26:14.128Z,29.62
2018-07-05T19:28:53.870Z,29.54
2018-07-05T19:31:33.484Z,29.44
2018-07-05T19:34:13.261Z,29.35
2018-07-05T19:36:53.077Z,29.25
2018-07-05T19:39:32.672Z,29.17
2018-07-05T19:42:12.351Z,29.05
2018-07-05T19:44:51.902Z,28.96
2018-07-05T19:47:31.553Z,28.88
2018-07-05T19:50:11.482Z,28.78
2018-07-05T19:52:56.348Z,28.73
2018-07-05T19:55:35.940Z,28.61
2018-07-05T19:58:16.549Z,28.53
2018-07-05T20:00:56.305Z,28.46
2018-07-05T20:03:36.013Z,28.37
2018-07-05T20:06:16.005Z,28.31
2018-07-05T20:08:55.796Z,28.24
2018-07-05T20:11:35.544Z,28.13
2018-07-05T20:14:15.104Z,28.07
2018-07-05T20:16:54.799Z,27.97
2018-07-05T20:19:34.587Z,27.90
2018-07-05T20:22:19.404Z,27.83
2018-07-05T20:24:59.234Z,27.75
2018-07-05T20:27:39.126Z,27.69
2018-07-05T20:30:18.949Z,27.64
2018-07-05T20:32:58.586Z,27.58
2018-07-05T20:35:38.164Z,27.51
2018-07-05T20:38:17.763Z,27.47
2018-07-05T20:40:57.306Z,27.40
2018-07-05T20:43:36.934Z,27.35
2018-07-05T20:46:16.739Z,27.30
2018-07-05T20:48:56.330Z,27.23
2018-07-05T20:51:35.918Z,27.19
2018-07-05T20:54:15.651Z,27.13
2018-07-05T20:56:55.284Z,27.10
2018-07-05T20:59:34.941Z,27.05
2018-07-05T21:02:14.691Z,26.98
2018-07-05T21:04:54.331Z,26.93
2018-07-05T21:07:33.837Z,26.86
2018-07-05T21:10:13.450Z,26.82
2018-07-05T21:12:53.246Z,26.79
2018-07-05T21:15:33.072Z,26.74
2018-07-05T21:18:12.759Z,26.67
2018-07-05T21:20:52.437Z,26.61
2018-07-05T21:23:32.374Z,26.54
2018-07-05T21:26:12.141Z,26.50
2018-07-05T21:28:51.724Z,26.46
2018-07-05T21:31:31.279Z,26.41
2018-07-05T21:34:10.937Z,26.34
2018-07-05T21:36:50.578Z,26.27
2018-07-05T21:39:30.227Z,26.20
2018-07-05T21:42:09.943Z,26.18
2018-07-05T21:44:49.453Z,26.13
2018-07-05T21:47:29.122Z,26.09
2018-07-05T21:50:08.725Z,26.06
2018-07-05T21:52:48.320Z,26.02
2018-07-05T21:55:27.928Z,25.98
2018-07-05T21:58:07.504Z,25.94
2018-07-05T22:00:46.943Z,25.89
2018-07-05T22:03:26.530Z,25.85
2018-07-05T22:06:06.016Z,25.81
2018-07-05T22:08:45.795Z,25.76
2018-07-05T22:11:25.502Z,25.73
2018-07-05T22:14:05.162Z,25.69
2018-07-05T22:16:49.989Z,25.65
2018-07-05T22:19:34.952Z,25.61
2018-07-05T22:22:19.965Z,25.58
2018-07-05T22:25:04.862Z,25.53
2018-07-05T22:27:49.725Z,25.49
2018-07-05T22:30:34.784Z,25.44
2018-07-05T22:33:14.521Z,25.38
2018-07-05T22:35:54.233Z,25.35
2018-07-05T22:38:33.939Z,25.32
2018-07-05T22:41:13.524Z,25.30
2018-07-05T22:43:53.147Z,25.24
2018-07-05T22:46:32.686Z,25.18
2018-07-05T22:49:12.337Z,25.14
2018-07-05T22:51:51.890Z,25.09
2018-07-05T22:54:31.635Z,25.06
2018-07-05T22:57:11.355Z,25.02
2018-07-05T22:59:50.997Z,24.99
2018-07-05T23:02:30.633Z,24.94
2018-07-05T23:05:10.234Z,24.88
2018-07-05T23:07:49.835Z,24.82
2018-07-05T23:10:29.403Z,24.78
2018-07-05T23:13:08.961Z,24.75
2018-07-05T23:15:48.554Z,24.70
2018-07-05T23:18:28.114Z,24.64
2018-07-05T23:21:07.620Z,24.59
2018-07-05T23:23:47.287Z,24.52
2018-07-05T23:26:26.827Z,24.46
2018-07-05T23:29:06.574Z,24.43
2018-07-05T23:31:46.213Z,24.38
2018-07-05T23:34:25.906Z,24.35
2018-07-05T23:37:05.398Z,24.31
2018-07-05T23:39:45.128Z,24.28
2018-07-05T23:42:24.694Z,24.27
2018-07-05T23:45:04.205Z,24.24
2018-07-05T23:47:43.620Z,24.19
2018-07-05T23:50:23.268Z,24.18
2018-07-05T23:53:02.834Z,24.14
2018-07-05T23:55:42.429Z,24.07
2018-07-05T23:58:22.110Z,24.04
